sensor_id;sensor_type;location;lat;lon;timestamp;P1;durP1;ratioP1;P2;durP2;ratioP2
10727;SDS011;5415;59.322;18.246;2023-01-08T00:02:23;20.77;;;12.10;;
10727;SDS011;5415;59.322;18.246;2023-01-08T00:04:52;27.87;;;12.67;;
10727;SDS011;5415;59.322;18.246;2023-01-08T00:07:20;20.40;;;12.43;;
10727;SDS011;5415;59.322;18.246;2023-01-08T00:09:48;25.53;;;12.07;;
10727;SDS011;5415;59.322;18.246;2023-01-08T00:12:22;22.83;;;12.53;;
10727;SDS011;5415;59.322;18.246;2023-01-08T00:14:49;27.63;;;13.07;;
10727;SDS011;5415;59.322;18.246;2023-01-08T00:17:17;25.80;;;13.30;;
10727;SDS011;5415;59.322;18.246;2023-01-08T00:19:44;29.00;;;12.53;;
10727;SDS011;5415;59.322;18.246;2023-01-08T00:22:12;24.47;;;13.80;;
10727;SDS011;5415;59.322;18.246;2023-01-08T00:24:40;24.33;;;13.73;;
10727;SDS011;5415;59.322;18.246;2023-01-08T00:27:07;22.70;;;12.93;;
10727;SDS011;5415;59.322;18.246;2023-01-08T00:29:36;17.10;;;10.37;;
10727;SDS011;5415;59.322;18.246;2023-01-08T00:32:04;18.30;;;11.20;;
10727;SDS011;5415;59.322;18.246;2023-01-08T00:34:31;21.57;;;11.97;;
10727;SDS011;5415;59.322;18.246;2023-01-08T00:36:59;21.30;;;11.63;;
10727;SDS011;5415;59.322;18.246;2023-01-08T00:39:26;19.00;;;11.70;;
10727;SDS011;5415;59.322;18.246;2023-01-08T00:41:56;25.03;;;13.27;;
10727;SDS011;5415;59.322;18.246;2023-01-08T00:44:23;25.50;;;12.27;;
10727;SDS011;5415;59.322;18.246;2023-01-08T00:46:54;21.60;;;12.53;;
10727;SDS011;5415;59.322;18.246;2023-01-08T00:49:21;20.53;;;11.93;;
10727;SDS011;5415;59.322;18.246;2023-01-08T00:51:55;19.47;;;12.03;;
10727;SDS011;5415;59.322;18.246;2023-01-08T00:54:22;18.77;;;11.53;;
10727;SDS011;5415;59.322;18.246;2023-01-08T00:56:50;12.53;;;8.57;;
10727;SDS011;5415;59.322;18.246;2023-01-08T00:59:18;18.60;;;11.20;;
10727;SDS011;5415;59.322;18.246;2023-01-08T01:01:45;18.83;;;11.50;;
10727;SDS011;5415;59.322;18.246;2023-01-08T01:04:14;16.83;;;10.67;;
10727;SDS011;5415;59.322;18.246;2023-01-08T01:06:42;20.83;;;10.50;;
10727;SDS011;5415;59.322;18.246;2023-01-08T01:09:10;14.20;;;10.13;;
10727;SDS011;5415;59.322;18.246;2023-01-08T01:11:37;15.33;;;10.73;;
10727;SDS011;5415;59.322;18.246;2023-01-08T01:14:05;18.10;;;11.23;;
10727;SDS011;5415;59.322;18.246;2023-01-08T01:16:32;14.37;;;9.00;;
10727;SDS011;5415;59.322;18.246;2023-01-08T01:19:00;14.43;;;9.43;;
10727;SDS011;5415;59.322;18.246;2023-01-08T01:21:30;14.93;;;10.03;;
10727;SDS011;5415;59.322;18.246;2023-01-08T01:24:02;17.23;;;10.37;;
10727;SDS011;5415;59.322;18.246;2023-01-08T01:26:30;15.73;;;9.00;;
10727;SDS011;5415;59.322;18.246;2023-01-08T01:28:57;13.10;;;8.40;;
10727;SDS011;5415;59.322;18.246;2023-01-08T01:31:26;13.87;;;7.97;;
10727;SDS011;5415;59.322;18.246;2023-01-08T01:33:54;13.53;;;8.90;;
10727;SDS011;5415;59.322;18.246;2023-01-08T01:36:22;12.63;;;7.73;;
10727;SDS011;5415;59.322;18.246;2023-01-08T01:38:52;10.53;;;6.77;;
10727;SDS011;5415;59.322;18.246;2023-01-08T01:41:23;11.27;;;7.40;;
10727;SDS011;5415;59.322;18.246;2023-01-08T01:43:53;10.10;;;7.83;;
10727;SDS011;5415;59.322;18.246;2023-01-08T01:46:23;10.93;;;7.50;;
10727;SDS011;5415;59.322;18.246;2023-01-08T01:48:54;14.20;;;7.50;;
10727;SDS011;5415;59.322;18.246;2023-01-08T01:51:24;10.43;;;7.80;;
10727;SDS011;5415;59.322;18.246;2023-01-08T01:53:56;13.90;;;7.70;;
10727;SDS011;5415;59.322;18.246;2023-01-08T01:56:25;12.57;;;7.93;;
10727;SDS011;5415;59.322;18.246;2023-01-08T01:58:53;9.97;;;7.20;;
10727;SDS011;5415;59.322;18.246;2023-01-08T02:01:21;11.50;;;7.77;;
10727;SDS011;5415;59.322;18.246;2023-01-08T02:03:49;11.17;;;7.50;;
10727;SDS011;5415;59.322;18.246;2023-01-08T02:06:18;9.33;;;6.70;;
10727;SDS011;5415;59.322;18.246;2023-01-08T02:08:53;8.83;;;7.27;;
10727;SDS011;5415;59.322;18.246;2023-01-08T02:11:25;10.00;;;7.03;;
10727;SDS011;5415;59.322;18.246;2023-01-08T02:13:57;10.00;;;7.03;;
10727;SDS011;5415;59.322;18.246;2023-01-08T02:16:28;10.40;;;7.17;;
10727;SDS011;5415;59.322;18.246;2023-01-08T02:19:01;11.40;;;7.57;;
10727;SDS011;5415;59.322;18.246;2023-01-08T02:21:31;9.00;;;6.40;;
10727;SDS011;5415;59.322;18.246;2023-01-08T02:24:04;9.90;;;7.63;;
10727;SDS011;5415;59.322;18.246;2023-01-08T02:26:37;11.03;;;7.67;;
10727;SDS011;5415;59.322;18.246;2023-01-08T02:29:06;10.00;;;7.00;;
10727;SDS011;5415;59.322;18.246;2023-01-08T02:31:34;9.30;;;6.57;;
10727;SDS011;5415;59.322;18.246;2023-01-08T02:34:04;8.80;;;6.50;;
10727;SDS011;5415;59.322;18.246;2023-01-08T02:36:33;7.20;;;5.87;;
10727;SDS011;5415;59.322;18.246;2023-01-08T02:39:12;8.50;;;5.60;;
10727;SDS011;5415;59.322;18.246;2023-01-08T02:41:46;7.30;;;5.40;;
10727;SDS011;5415;59.322;18.246;2023-01-08T02:44:19;8.37;;;5.70;;
10727;SDS011;5415;59.322;18.246;2023-01-08T02:46:48;7.77;;;5.47;;
10727;SDS011;5415;59.322;18.246;2023-01-08T02:49:16;6.17;;;5.20;;
10727;SDS011;5415;59.322;18.246;2023-01-08T02:51:46;9.03;;;6.37;;
10727;SDS011;5415;59.322;18.246;2023-01-08T02:54:15;10.10;;;6.10;;
10727;SDS011;5415;59.322;18.246;2023-01-08T02:56:46;6.97;;;5.23;;
10727;SDS011;5415;59.322;18.246;2023-01-08T02:59:15;7.10;;;4.93;;
10727;SDS011;5415;59.322;18.246;2023-01-08T03:01:42;7.80;;;4.93;;
10727;SDS011;5415;59.322;18.246;2023-01-08T03:04:12;7.80;;;5.50;;
10727;SDS011;5415;59.322;18.246;2023-01-08T03:06:40;6.53;;;4.70;;
10727;SDS011;5415;59.322;18.246;2023-01-08T03:09:09;6.53;;;5.20;;
10727;SDS011;5415;59.322;18.246;2023-01-08T03:11:37;6.47;;;4.70;;
10727;SDS011;5415;59.322;18.246;2023-01-08T03:14:10;5.63;;;4.57;;
10727;SDS011;5415;59.322;18.246;2023-01-08T03:16:44;6.97;;;4.30;;
10727;SDS011;5415;59.322;18.246;2023-01-08T03:19:13;6.13;;;4.60;;
10727;SDS011;5415;59.322;18.246;2023-01-08T03:21:43;5.93;;;4.20;;
10727;SDS011;5415;59.322;18.246;2023-01-08T03:24:12;5.27;;;4.27;;
10727;SDS011;5415;59.322;18.246;2023-01-08T03:26:41;6.07;;;4.00;;
10727;SDS011;5415;59.322;18.246;2023-01-08T03:29:12;5.23;;;4.30;;
10727;SDS011;5415;59.322;18.246;2023-01-08T03:31:41;6.43;;;3.80;;
10727;SDS011;5415;59.322;18.246;2023-01-08T03:34:12;5.23;;;3.70;;
10727;SDS011;5415;59.322;18.246;2023-01-08T03:36:40;4.07;;;3.60;;
10727;SDS011;5415;59.322;18.246;2023-01-08T03:39:11;4.13;;;3.10;;
10727;SDS011;5415;59.322;18.246;2023-01-08T03:41:40;4.37;;;3.80;;
10727;SDS011;5415;59.322;18.246;2023-01-08T03:44:08;5.43;;;3.63;;
10727;SDS011;5415;59.322;18.246;2023-01-08T03:46:38;4.20;;;3.43;;
10727;SDS011;5415;59.322;18.246;2023-01-08T03:49:06;4.67;;;3.47;;
10727;SDS011;5415;59.322;18.246;2023-01-08T03:51:40;5.07;;;3.20;;
10727;SDS011;5415;59.322;18.246;2023-01-08T03:54:08;3.80;;;3.10;;
10727;SDS011;5415;59.322;18.246;2023-01-08T03:56:37;5.03;;;2.93;;
10727;SDS011;5415;59.322;18.246;2023-01-08T03:59:04;3.00;;;2.70;;
10727;SDS011;5415;59.322;18.246;2023-01-08T04:01:32;4.53;;;2.73;;
10727;SDS011;5415;59.322;18.246;2023-01-08T04:04:07;4.43;;;2.87;;
10727;SDS011;5415;59.322;18.246;2023-01-08T04:06:35;3.20;;;2.90;;
10727;SDS011;5415;59.322;18.246;2023-01-08T04:09:03;3.87;;;2.80;;
10727;SDS011;5415;59.322;18.246;2023-01-08T04:11:31;3.87;;;3.00;;
10727;SDS011;5415;59.322;18.246;2023-01-08T04:13:59;4.17;;;2.97;;
10727;SDS011;5415;59.322;18.246;2023-01-08T04:16:28;5.77;;;3.30;;
10727;SDS011;5415;59.322;18.246;2023-01-08T04:18:55;4.87;;;3.00;;
10727;SDS011;5415;59.322;18.246;2023-01-08T04:21:24;3.63;;;2.63;;
10727;SDS011;5415;59.322;18.246;2023-01-08T04:23:53;4.13;;;2.77;;
10727;SDS011;5415;59.322;18.246;2023-01-08T04:26:20;3.83;;;2.73;;
10727;SDS011;5415;59.322;18.246;2023-01-08T04:28:48;4.07;;;3.00;;
10727;SDS011;5415;59.322;18.246;2023-01-08T04:31:15;3.60;;;2.53;;
10727;SDS011;5415;59.322;18.246;2023-01-08T04:33:43;4.37;;;2.67;;
10727;SDS011;5415;59.322;18.246;2023-01-08T04:36:10;4.13;;;3.00;;
10727;SDS011;5415;59.322;18.246;2023-01-08T04:38:39;3.77;;;3.00;;
10727;SDS011;5415;59.322;18.246;2023-01-08T04:41:07;3.23;;;2.50;;
10727;SDS011;5415;59.322;18.246;2023-01-08T04:43:34;2.67;;;2.47;;
10727;SDS011;5415;59.322;18.246;2023-01-08T04:46:02;2.83;;;2.50;;
10727;SDS011;5415;59.322;18.246;2023-01-08T04:48:31;2.87;;;2.20;;
10727;SDS011;5415;59.322;18.246;2023-01-08T04:50:59;4.17;;;2.70;;
10727;SDS011;5415;59.322;18.246;2023-01-08T04:53:27;3.00;;;2.53;;
10727;SDS011;5415;59.322;18.246;2023-01-08T04:55:57;3.10;;;2.33;;
10727;SDS011;5415;59.322;18.246;2023-01-08T04:58:28;2.80;;;2.30;;
10727;SDS011;5415;59.322;18.246;2023-01-08T05:00:57;3.83;;;2.30;;
10727;SDS011;5415;59.322;18.246;2023-01-08T05:03:26;2.60;;;2.10;;
10727;SDS011;5415;59.322;18.246;2023-01-08T05:05:54;2.20;;;2.00;;
10727;SDS011;5415;59.322;18.246;2023-01-08T05:08:21;2.67;;;2.47;;
10727;SDS011;5415;59.322;18.246;2023-01-08T05:10:48;2.70;;;2.00;;
10727;SDS011;5415;59.322;18.246;2023-01-08T05:13:17;3.37;;;2.00;;
10727;SDS011;5415;59.322;18.246;2023-01-08T05:15:45;2.40;;;2.07;;
10727;SDS011;5415;59.322;18.246;2023-01-08T05:18:13;2.63;;;2.10;;
10727;SDS011;5415;59.322;18.246;2023-01-08T05:20:40;2.50;;;1.90;;
10727;SDS011;5415;59.322;18.246;2023-01-08T05:23:08;2.10;;;1.90;;
10727;SDS011;5415;59.322;18.246;2023-01-08T05:25:35;2.87;;;1.90;;
10727;SDS011;5415;59.322;18.246;2023-01-08T05:28:03;2.40;;;2.20;;
10727;SDS011;5415;59.322;18.246;2023-01-08T05:30:34;2.43;;;2.00;;
10727;SDS011;5415;59.322;18.246;2023-01-08T05:33:02;3.23;;;1.97;;
10727;SDS011;5415;59.322;18.246;2023-01-08T05:35:29;2.67;;;2.10;;
10727;SDS011;5415;59.322;18.246;2023-01-08T05:37:58;2.07;;;1.77;;
10727;SDS011;5415;59.322;18.246;2023-01-08T05:40:25;2.13;;;1.90;;
10727;SDS011;5415;59.322;18.246;2023-01-08T05:42:53;2.27;;;1.90;;
10727;SDS011;5415;59.322;18.246;2023-01-08T05:45:20;2.47;;;1.90;;
10727;SDS011;5415;59.322;18.246;2023-01-08T05:47:50;2.37;;;2.10;;
10727;SDS011;5415;59.322;18.246;2023-01-08T05:50:18;3.17;;;2.27;;
10727;SDS011;5415;59.322;18.246;2023-01-08T05:52:48;3.20;;;2.10;;
10727;SDS011;5415;59.322;18.246;2023-01-08T05:55:16;2.43;;;2.10;;
10727;SDS011;5415;59.322;18.246;2023-01-08T05:57:43;2.10;;;1.90;;
10727;SDS011;5415;59.322;18.246;2023-01-08T06:00:12;2.67;;;1.80;;
10727;SDS011;5415;59.322;18.246;2023-01-08T06:02:39;2.43;;;2.17;;
10727;SDS011;5415;59.322;18.246;2023-01-08T06:05:09;3.73;;;2.27;;
10727;SDS011;5415;59.322;18.246;2023-01-08T06:07:37;3.33;;;2.23;;
10727;SDS011;5415;59.322;18.246;2023-01-08T06:10:04;2.40;;;2.20;;
10727;SDS011;5415;59.322;18.246;2023-01-08T06:12:32;2.50;;;2.30;;
10727;SDS011;5415;59.322;18.246;2023-01-08T06:15:01;2.90;;;2.10;;
10727;SDS011;5415;59.322;18.246;2023-01-08T06:17:28;2.87;;;2.13;;
10727;SDS011;5415;59.322;18.246;2023-01-08T06:19:56;2.17;;;1.97;;
10727;SDS011;5415;59.322;18.246;2023-01-08T06:22:25;2.63;;;1.87;;
10727;SDS011;5415;59.322;18.246;2023-01-08T06:24:52;3.27;;;2.13;;
10727;SDS011;5415;59.322;18.246;2023-01-08T06:27:20;2.50;;;2.23;;
10727;SDS011;5415;59.322;18.246;2023-01-08T06:29:48;3.27;;;2.30;;
10727;SDS011;5415;59.322;18.246;2023-01-08T06:32:16;4.57;;;2.37;;
10727;SDS011;5415;59.322;18.246;2023-01-08T06:34:44;2.77;;;2.23;;
10727;SDS011;5415;59.322;18.246;2023-01-08T06:37:12;3.27;;;2.43;;
10727;SDS011;5415;59.322;18.246;2023-01-08T06:39:41;2.80;;;2.40;;
10727;SDS011;5415;59.322;18.246;2023-01-08T06:42:09;2.87;;;2.40;;
10727;SDS011;5415;59.322;18.246;2023-01-08T06:44:36;3.53;;;2.67;;
10727;SDS011;5415;59.322;18.246;2023-01-08T06:47:04;4.00;;;2.90;;
10727;SDS011;5415;59.322;18.246;2023-01-08T06:49:31;3.37;;;2.53;;
10727;SDS011;5415;59.322;18.246;2023-01-08T06:51:59;3.00;;;2.50;;
10727;SDS011;5415;59.322;18.246;2023-01-08T06:54:26;3.20;;;2.67;;
10727;SDS011;5415;59.322;18.246;2023-01-08T06:56:57;3.17;;;2.80;;
10727;SDS011;5415;59.322;18.246;2023-01-08T06:59:25;4.13;;;2.77;;
10727;SDS011;5415;59.322;18.246;2023-01-08T07:01:52;4.10;;;2.90;;
10727;SDS011;5415;59.322;18.246;2023-01-08T07:04:20;4.90;;;2.80;;
10727;SDS011;5415;59.322;18.246;2023-01-08T07:06:47;4.77;;;2.90;;
10727;SDS011;5415;59.322;18.246;2023-01-08T07:09:15;3.67;;;2.60;;
10727;SDS011;5415;59.322;18.246;2023-01-08T07:11:43;3.33;;;2.60;;
10727;SDS011;5415;59.322;18.246;2023-01-08T07:14:13;3.93;;;2.80;;
10727;SDS011;5415;59.322;18.246;2023-01-08T07:16:40;4.33;;;2.93;;
10727;SDS011;5415;59.322;18.246;2023-01-08T07:19:08;3.83;;;2.60;;
10727;SDS011;5415;59.322;18.246;2023-01-08T07:21:35;3.20;;;2.67;;
10727;SDS011;5415;59.322;18.246;2023-01-08T07:24:03;3.80;;;2.50;;
10727;SDS011;5415;59.322;18.246;2023-01-08T07:26:31;4.03;;;2.70;;
10727;SDS011;5415;59.322;18.246;2023-01-08T07:28:59;2.63;;;2.43;;
10727;SDS011;5415;59.322;18.246;2023-01-08T07:31:27;4.70;;;3.00;;
10727;SDS011;5415;59.322;18.246;2023-01-08T07:33:55;4.80;;;2.60;;
10727;SDS011;5415;59.322;18.246;2023-01-08T07:36:22;4.57;;;3.47;;
10727;SDS011;5415;59.322;18.246;2023-01-08T07:38:50;3.40;;;2.97;;
10727;SDS011;5415;59.322;18.246;2023-01-08T07:41:17;4.53;;;3.10;;
10727;SDS011;5415;59.322;18.246;2023-01-08T07:43:45;4.03;;;3.23;;
10727;SDS011;5415;59.322;18.246;2023-01-08T07:46:13;4.53;;;3.70;;
10727;SDS011;5415;59.322;18.246;2023-01-08T07:48:43;5.43;;;4.13;;
10727;SDS011;5415;59.322;18.246;2023-01-08T07:51:11;5.37;;;3.50;;
10727;SDS011;5415;59.322;18.246;2023-01-08T07:53:38;6.73;;;4.00;;
10727;SDS011;5415;59.322;18.246;2023-01-08T07:56:07;4.93;;;4.20;;
10727;SDS011;5415;59.322;18.246;2023-01-08T07:58:35;5.03;;;3.80;;
10727;SDS011;5415;59.322;18.246;2023-01-08T08:01:03;5.07;;;4.27;;
10727;SDS011;5415;59.322;18.246;2023-01-08T08:03:30;9.30;;;4.40;;
10727;SDS011;5415;59.322;18.246;2023-01-08T08:06:00;8.40;;;3.83;;
10727;SDS011;5415;59.322;18.246;2023-01-08T08:08:27;7.13;;;5.30;;
10727;SDS011;5415;59.322;18.246;2023-01-08T08:10:55;7.83;;;6.10;;
10727;SDS011;5415;59.322;18.246;2023-01-08T08:13:22;70.10;;;5.93;;
10727;SDS011;5415;59.322;18.246;2023-01-08T08:15:50;9.03;;;6.20;;
10727;SDS011;5415;59.322;18.246;2023-01-08T08:18:18;12.80;;;6.33;;
10727;SDS011;5415;59.322;18.246;2023-01-08T08:20:46;13.13;;;6.70;;
10727;SDS011;5415;59.322;18.246;2023-01-08T08:23:17;12.60;;;8.03;;
10727;SDS011;5415;59.322;18.246;2023-01-08T08:25:44;55.67;;;7.43;;
10727;SDS011;5415;59.322;18.246;2023-01-08T08:28:12;11.53;;;6.97;;
10727;SDS011;5415;59.322;18.246;2023-01-08T08:30:39;50.00;;;7.43;;
10727;SDS011;5415;59.322;18.246;2023-01-08T08:33:07;21.13;;;7.00;;
10727;SDS011;5415;59.322;18.246;2023-01-08T08:35:35;11.43;;;7.23;;
10727;SDS011;5415;59.322;18.246;2023-01-08T08:38:02;30.47;;;7.67;;
10727;SDS011;5415;59.322;18.246;2023-01-08T08:40:32;11.70;;;7.00;;
10727;SDS011;5415;59.322;18.246;2023-01-08T08:43:00;10.00;;;6.57;;
10727;SDS011;5415;59.322;18.246;2023-01-08T08:45:28;8.30;;;5.33;;
10727;SDS011;5415;59.322;18.246;2023-01-08T08:47:56;13.50;;;6.80;;
10727;SDS011;5415;59.322;18.246;2023-01-08T08:50:26;10.33;;;5.33;;
10727;SDS011;5415;59.322;18.246;2023-01-08T08:52:57;9.30;;;5.50;;
10727;SDS011;5415;59.322;18.246;2023-01-08T08:55:25;7.03;;;5.33;;
10727;SDS011;5415;59.322;18.246;2023-01-08T08:58:00;25.63;;;5.13;;
10727;SDS011;5415;59.322;18.246;2023-01-08T09:00:28;10.23;;;5.20;;
10727;SDS011;5415;59.322;18.246;2023-01-08T09:02:55;7.40;;;5.00;;
10727;SDS011;5415;59.322;18.246;2023-01-08T09:05:23;9.07;;;4.67;;
10727;SDS011;5415;59.322;18.246;2023-01-08T09:07:51;8.27;;;4.23;;
10727;SDS011;5415;59.322;18.246;2023-01-08T09:10:20;12.97;;;5.77;;
10727;SDS011;5415;59.322;18.246;2023-01-08T09:12:47;16.23;;;6.27;;
10727;SDS011;5415;59.322;18.246;2023-01-08T09:15:17;12.40;;;6.47;;
10727;SDS011;5415;59.322;18.246;2023-01-08T09:17:50;94.87;;;9.00;;
10727;SDS011;5415;59.322;18.246;2023-01-08T09:20:18;115.17;;;11.00;;
10727;SDS011;5415;59.322;18.246;2023-01-08T09:22:46;37.23;;;10.27;;
10727;SDS011;5415;59.322;18.246;2023-01-08T09:25:13;48.60;;;12.37;;
10727;SDS011;5415;59.322;18.246;2023-01-08T09:27:41;49.07;;;13.23;;
10727;SDS011;5415;59.322;18.246;2023-01-08T09:30:08;62.17;;;13.63;;
10727;SDS011;5415;59.322;18.246;2023-01-08T09:32:38;58.23;;;14.17;;
10727;SDS011;5415;59.322;18.246;2023-01-08T09:35:05;63.67;;;10.70;;
10727;SDS011;5415;59.322;18.246;2023-01-08T09:37:34;89.80;;;14.47;;
10727;SDS011;5415;59.322;18.246;2023-01-08T09:40:02;151.73;;;15.10;;
10727;SDS011;5415;59.322;18.246;2023-01-08T09:42:30;53.33;;;13.60;;
10727;SDS011;5415;59.322;18.246;2023-01-08T09:44:59;66.60;;;14.87;;
10727;SDS011;5415;59.322;18.246;2023-01-08T09:47:28;58.67;;;15.20;;
10727;SDS011;5415;59.322;18.246;2023-01-08T09:49:59;50.23;;;15.10;;
10727;SDS011;5415;59.322;18.246;2023-01-08T09:52:29;82.97;;;16.17;;
10727;SDS011;5415;59.322;18.246;2023-01-08T09:54:59;123.87;;;17.50;;
10727;SDS011;5415;59.322;18.246;2023-01-08T09:57:28;115.90;;;18.00;;
10727;SDS011;5415;59.322;18.246;2023-01-08T09:59:56;229.68;;;24.55;;
10727;SDS011;5415;59.322;18.246;2023-01-08T10:02:24;174.17;;;20.00;;
10727;SDS011;5415;59.322;18.246;2023-01-08T10:04:54;137.47;;;20.00;;
10727;SDS011;5415;59.322;18.246;2023-01-08T10:07:26;270.73;;;22.47;;
10727;SDS011;5415;59.322;18.246;2023-01-08T10:09:55;386.07;;;19.83;;
10727;SDS011;5415;59.322;18.246;2023-01-08T10:12:24;254.63;;;18.33;;
10727;SDS011;5415;59.322;18.246;2023-01-08T10:14:52;64.10;;;14.57;;
10727;SDS011;5415;59.322;18.246;2023-01-08T10:17:24;158.23;;;17.70;;
10727;SDS011;5415;59.322;18.246;2023-01-08T10:19:52;97.60;;;17.43;;
10727;SDS011;5415;59.322;18.246;2023-01-08T10:22:22;116.03;;;19.03;;
10727;SDS011;5415;59.322;18.246;2023-01-08T10:24:52;198.47;;;21.80;;
10727;SDS011;5415;59.322;18.246;2023-01-08T10:27:31;88.40;;;19.63;;
10727;SDS011;5415;59.322;18.246;2023-01-08T10:30:05;101.83;;;18.30;;
10727;SDS011;5415;59.322;18.246;2023-01-08T10:32:33;203.83;;;22.30;;
10727;SDS011;5415;59.322;18.246;2023-01-08T10:35:04;142.27;;;21.67;;
10727;SDS011;5415;59.322;18.246;2023-01-08T10:37:35;298.27;;;24.93;;
10727;SDS011;5415;59.322;18.246;2023-01-08T10:40:16;98.70;;;19.70;;
10727;SDS011;5415;59.322;18.246;2023-01-08T10:42:57;207.73;;;23.13;;
10727;SDS011;5415;59.322;18.246;2023-01-08T10:45:33;70.77;;;20.13;;
10727;SDS011;5415;59.322;18.246;2023-01-08T10:48:03;167.73;;;21.13;;
10727;SDS011;5415;59.322;18.246;2023-01-08T10:50:33;86.37;;;20.80;;
10727;SDS011;5415;59.322;18.246;2023-01-08T10:53:01;74.70;;;20.77;;
10727;SDS011;5415;59.322;18.246;2023-01-08T10:55:32;127.80;;;22.40;;
10727;SDS011;5415;59.322;18.246;2023-01-08T10:58:02;115.63;;;21.87;;
10727;SDS011;5415;59.322;18.246;2023-01-08T11:00:31;301.27;;;24.00;;
10727;SDS011;5415;59.322;18.246;2023-01-08T11:03:00;128.03;;;21.87;;
10727;SDS011;5415;59.322;18.246;2023-01-08T11:05:29;93.27;;;21.10;;
10727;SDS011;5415;59.322;18.246;2023-01-08T11:07:57;78.50;;;22.10;;
10727;SDS011;5415;59.322;18.246;2023-01-08T11:10:26;115.83;;;22.33;;
10727;SDS011;5415;59.322;18.246;2023-01-08T11:12:59;89.67;;;22.87;;
10727;SDS011;5415;59.322;18.246;2023-01-08T11:15:32;250.17;;;26.10;;
10727;SDS011;5415;59.322;18.246;2023-01-08T11:18:16;93.53;;;21.23;;
10727;SDS011;5415;59.322;18.246;2023-01-08T11:20:46;87.03;;;23.03;;
10727;SDS011;5415;59.322;18.246;2023-01-08T11:23:17;112.87;;;24.53;;
10727;SDS011;5415;59.322;18.246;2023-01-08T11:25:47;112.13;;;22.70;;
10727;SDS011;5415;59.322;18.246;2023-01-08T11:28:18;88.43;;;24.53;;
10727;SDS011;5415;59.322;18.246;2023-01-08T11:30:47;155.77;;;22.60;;
10727;SDS011;5415;59.322;18.246;2023-01-08T11:33:17;218.67;;;25.03;;
10727;SDS011;5415;59.322;18.246;2023-01-08T11:35:47;88.27;;;24.27;;
10727;SDS011;5415;59.322;18.246;2023-01-08T11:38:16;99.23;;;25.57;;
10727;SDS011;5415;59.322;18.246;2023-01-08T11:40:45;104.40;;;24.43;;
10727;SDS011;5415;59.322;18.246;2023-01-08T11:43:20;96.63;;;24.23;;
10727;SDS011;5415;59.322;18.246;2023-01-08T11:45:52;119.23;;;25.57;;
10727;SDS011;5415;59.322;18.246;2023-01-08T11:48:30;176.27;;;27.90;;
10727;SDS011;5415;59.322;18.246;2023-01-08T11:51:13;134.07;;;26.17;;
10727;SDS011;5415;59.322;18.246;2023-01-08T11:53:45;125.43;;;22.93;;
10727;SDS011;5415;59.322;18.246;2023-01-08T11:56:16;101.37;;;23.07;;
10727;SDS011;5415;59.322;18.246;2023-01-08T11:58:55;193.43;;;25.83;;
10727;SDS011;5415;59.322;18.246;2023-01-08T12:01:31;152.27;;;25.23;;
10727;SDS011;5415;59.322;18.246;2023-01-08T12:04:08;123.10;;;23.50;;
10727;SDS011;5415;59.322;18.246;2023-01-08T12:06:56;173.10;;;23.03;;
10727;SDS011;5415;59.322;18.246;2023-01-08T12:09:34;70.27;;;21.10;;
10727;SDS011;5415;59.322;18.246;2023-01-08T12:12:08;109.63;;;23.67;;
10727;SDS011;5415;59.322;18.246;2023-01-08T12:14:50;108.10;;;24.37;;
10727;SDS011;5415;59.322;18.246;2023-01-08T12:20:29;85.43;;;21.90;;
10727;SDS011;5415;59.322;18.246;2023-01-08T12:22:59;114.20;;;27.00;;
10727;SDS011;5415;59.322;18.246;2023-01-08T12:25:47;111.10;;;25.63;;
10727;SDS011;5415;59.322;18.246;2023-01-08T12:28:41;69.67;;;22.20;;
10727;SDS011;5415;59.322;18.246;2023-01-08T12:33:59;133.40;;;23.23;;
10727;SDS011;5415;59.322;18.246;2023-01-08T12:36:31;112.10;;;25.37;;
10727;SDS011;5415;59.322;18.246;2023-01-08T12:39:00;73.17;;;23.17;;
10727;SDS011;5415;59.322;18.246;2023-01-08T12:41:29;238.30;;;24.73;;
10727;SDS011;5415;59.322;18.246;2023-01-08T12:44:09;79.60;;;20.63;;
10727;SDS011;5415;59.322;18.246;2023-01-08T12:46:38;202.77;;;23.33;;
10727;SDS011;5415;59.322;18.246;2023-01-08T12:52:00;48.70;;;19.73;;
10727;SDS011;5415;59.322;18.246;2023-01-08T12:54:33;119.40;;;20.53;;
10727;SDS011;5415;59.322;18.246;2023-01-08T12:57:15;67.60;;;25.67;;
10727;SDS011;5415;59.322;18.246;2023-01-08T12:59:53;86.73;;;23.83;;
10727;SDS011;5415;59.322;18.246;2023-01-08T13:02:30;62.10;;;21.33;;
10727;SDS011;5415;59.322;18.246;2023-01-08T13:08:21;72.07;;;25.00;;
10727;SDS011;5415;59.322;18.246;2023-01-08T13:10:57;57.07;;;23.17;;
10727;SDS011;5415;59.322;18.246;2023-01-08T13:13:43;56.27;;;24.07;;
10727;SDS011;5415;59.322;18.246;2023-01-08T13:16:19;63.30;;;22.97;;
10727;SDS011;5415;59.322;18.246;2023-01-08T13:19:06;57.80;;;26.40;;
10727;SDS011;5415;59.322;18.246;2023-01-08T13:22:14;68.00;;;27.40;;
10727;SDS011;5415;59.322;18.246;2023-01-08T13:25:25;67.13;;;26.57;;
10727;SDS011;5415;59.322;18.246;2023-01-08T13:27:55;77.67;;;28.07;;
10727;SDS011;5415;59.322;18.246;2023-01-08T13:30:37;75.27;;;30.20;;
10727;SDS011;5415;59.322;18.246;2023-01-08T13:36:11;56.20;;;26.83;;
10727;SDS011;5415;59.322;18.246;2023-01-08T13:41:55;83.07;;;30.90;;
10727;SDS011;5415;59.322;18.246;2023-01-08T13:44:27;76.80;;;28.90;;
10727;SDS011;5415;59.322;18.246;2023-01-08T13:46:59;63.47;;;28.17;;
10727;SDS011;5415;59.322;18.246;2023-01-08T13:49:33;68.40;;;29.20;;
10727;SDS011;5415;59.322;18.246;2023-01-08T13:54:58;64.70;;;28.63;;
10727;SDS011;5415;59.322;18.246;2023-01-08T13:57:30;68.60;;;27.13;;
10727;SDS011;5415;59.322;18.246;2023-01-08T14:00:03;57.40;;;27.67;;
10727;SDS011;5415;59.322;18.246;2023-01-08T14:02:40;74.40;;;29.90;;
10727;SDS011;5415;59.322;18.246;2023-01-08T14:05:18;62.90;;;28.97;;
10727;SDS011;5415;59.322;18.246;2023-01-08T14:07:49;63.07;;;28.63;;
10727;SDS011;5415;59.322;18.246;2023-01-08T14:10:19;69.20;;;29.30;;
10727;SDS011;5415;59.322;18.246;2023-01-08T14:12:48;63.57;;;28.47;;
10727;SDS011;5415;59.322;18.246;2023-01-08T14:15:19;70.10;;;30.97;;
10727;SDS011;5415;59.322;18.246;2023-01-08T14:17:51;59.33;;;28.17;;
10727;SDS011;5415;59.322;18.246;2023-01-08T14:20:27;58.17;;;27.20;;
10727;SDS011;5415;59.322;18.246;2023-01-08T14:22:58;63.70;;;27.33;;
10727;SDS011;5415;59.322;18.246;2023-01-08T14:25:28;65.10;;;28.93;;
10727;SDS011;5415;59.322;18.246;2023-01-08T14:27:56;57.73;;;27.83;;
10727;SDS011;5415;59.322;18.246;2023-01-08T14:30:26;64.07;;;29.43;;
10727;SDS011;5415;59.322;18.246;2023-01-08T14:32:53;56.47;;;26.80;;
10727;SDS011;5415;59.322;18.246;2023-01-08T14:35:25;57.47;;;28.70;;
10727;SDS011;5415;59.322;18.246;2023-01-08T14:37:57;52.10;;;27.60;;
10727;SDS011;5415;59.322;18.246;2023-01-08T14:40:34;54.67;;;27.50;;
10727;SDS011;5415;59.322;18.246;2023-01-08T14:43:08;56.13;;;28.50;;
10727;SDS011;5415;59.322;18.246;2023-01-08T14:45:37;42.03;;;23.93;;
10727;SDS011;5415;59.322;18.246;2023-01-08T14:48:11;47.73;;;25.97;;
10727;SDS011;5415;59.322;18.246;2023-01-08T14:50:44;42.83;;;24.13;;
10727;SDS011;5415;59.322;18.246;2023-01-08T14:53:26;52.70;;;27.10;;
10727;SDS011;5415;59.322;18.246;2023-01-08T14:55:59;54.63;;;26.73;;
10727;SDS011;5415;59.322;18.246;2023-01-08T14:58:28;42.93;;;23.47;;
10727;SDS011;5415;59.322;18.246;2023-01-08T15:01:02;50.97;;;25.83;;
10727;SDS011;5415;59.322;18.246;2023-01-08T15:03:36;41.60;;;24.77;;
10727;SDS011;5415;59.322;18.246;2023-01-08T15:06:06;40.47;;;23.70;;
10727;SDS011;5415;59.322;18.246;2023-01-08T15:08:36;40.63;;;25.77;;
10727;SDS011;5415;59.322;18.246;2023-01-08T15:11:09;43.13;;;23.33;;
10727;SDS011;5415;59.322;18.246;2023-01-08T15:13:47;36.40;;;21.70;;